Time;durP1;ratioP1;P1;durP2;ratioP2;P2;SDS_P1;SDS_P2;PMS_P1;PMS_P2;Temp;Humidity;BMP_temperature;BMP_pressure;BME280_temperature;BME280_humidity;BME280_pressure;Samples;Min_cycle;Max_cycle;Signal;HPM_P1;HPM_P2
2021/07/17 00:00:08;;;;;;;58.25;17.60;;;;;;;18.21;77.92;102153.03;5112564;28;20035;-66
2021/07/17 00:02:49;;;;;;;49.50;17.65;;;;;;;18.06;78.21;102157.41;5110630;27;20125;-67
2021/07/17 00:05:18;;;;;;;64.47;18.08;;;;;;;18.07;78.24;102155.59;5110383;28;20085;-67
2021/07/17 00:07:46;;;;;;;63.92;18.13;;;;;;;18.05;78.18;102154.91;5090499;28;20496;-67
2021/07/17 00:10:24;;;;;;;69.95;18.75;;;;;;;18.07;78.01;102159.09;5110098;28;20071;-67
2021/07/17 00:12:51;;;;;;;63.35;17.90;;;;;;;18.06;78.29;102159.25;5109986;28;20399;-67
2021/07/17 00:15:21;;;;;;;61.75;17.40;;;;;;;18.08;78.54;102160.78;5110377;28;20044;-67
2021/07/17 00:17:48;;;;;;;56.53;17.83;;;;;;;18.13;77.99;102149.53;5110029;28;20098;-67
2021/07/17 00:20:17;;;;;;;76.00;18.95;;;;;;;18.02;78.48;102142.66;5110242;28;20044;-67
2021/07/17 00:22:44;;;;;;;66.20;18.90;;;;;;;18.12;78.30;102145.16;5075605;28;20068;-67
2021/07/17 00:25:15;;;;;;;64.03;19.20;;;;;;;18.00;78.39;102148.19;5071637;28;20071;-67
2021/07/17 00:27:43;;;;;;;59.75;18.05;;;;;;;18.03;78.34;102153.22;5071405;28;20097;-67
2021/07/17 00:30:11;;;;;;;63.05;19.17;;;;;;;18.06;78.25;102143.97;5071262;28;20040;-67
2021/07/17 00:32:37;;;;;;;58.20;17.88;;;;;;;18.02;78.25;102143.47;5071508;28;20037;-67
2021/07/17 00:35:06;;;;;;;70.55;18.75;;;;;;;17.98;78.68;102149.38;5069661;28;20109;-67
2021/07/17 00:37:33;;;;;;;67.85;18.17;;;;;;;17.99;78.50;102157.28;5071399;28;20079;-67
2021/07/17 00:40:12;;;;;;;62.65;18.70;;;;;;;17.99;78.53;102143.84;5066438;28;20044;-67
2021/07/17 00:42:41;;;;;;;63.20;19.27;;;;;;;18.03;78.15;102145.19;5054798;28;20041;-67
2021/07/17 00:45:09;;;;;;;59.63;19.48;;;;;;;17.99;77.92;102148.34;5071114;28;20050;-67
2021/07/17 00:47:37;;;;;;;60.70;18.73;;;;;;;18.03;78.23;102145.19;5089071;28;20064;-67
2021/07/17 00:50:05;;;;;;;68.20;19.30;;;;;;;18.02;78.31;102138.13;5071012;28;20044;-67
2021/07/17 00:52:33;;;;;;;60.38;18.05;;;;;;;18.01;78.55;102138.31;5089345;28;20124;-67
2021/07/17 00:55:03;;;;;;;65.68;19.85;;;;;;;17.99;78.15;102145.66;5071382;28;20048;-67
2021/07/17 00:57:33;;;;;;;57.42;19.08;;;;;;;17.96;78.07;102146.84;5070944;28;20489;-67
2021/07/17 01:00:09;;;;;;;63.78;19.05;;;;;;;17.97;77.76;102148.56;5072092;28;20036;-67
2021/07/17 01:02:39;;;;;;;50.15;17.85;;;;;;;17.97;78.34;102135.13;5109031;28;20134;-67
2021/07/17 01:05:07;;;;;;;68.50;19.05;;;;;;;17.91;78.12;102141.16;5109173;28;20064;-67
2021/07/17 01:07:45;;;;;;;75.78;19.08;;;;;;;17.93;77.84;102146.34;5108215;28;20115;-67
2021/07/17 01:10:14;;;;;;;60.55;19.15;;;;;;;17.90;78.42;102144.00;5109097;28;20085;-67
2021/07/17 01:12:41;;;;;;;57.33;19.00;;;;;;;17.90;78.11;102144.00;5102406;28;20044;-67
2021/07/17 01:15:08;;;;;;;61.75;19.95;;;;;;;17.88;78.27;102140.66;5092177;28;20134;-67
2021/07/17 01:17:36;;;;;;;63.75;18.17;;;;;;;17.88;78.22;102148.69;5093990;28;20040;-67
2021/07/17 01:20:08;;;;;;;58.08;18.40;;;;;;;17.94;78.31;102151.56;5094262;28;20502;-67
2021/07/17 01:22:37;;;;;;;67.47;19.52;;;;;;;17.91;77.99;102149.19;5095524;28;20488;-67
2021/07/17 01:25:09;;;;;;;71.03;20.20;;;;;;;17.90;78.56;102155.59;5093811;28;20040;-67
2021/07/17 01:27:36;;;;;;;66.05;19.13;;;;;;;17.94;77.94;102156.94;5093850;28;20075;-67
2021/07/17 01:30:14;;;;;;;64.28;19.90;;;;;;;17.95;77.96;102161.28;5095045;28;20040;-66
2021/07/17 01:32:42;;;;;;;57.85;18.63;;;;;;;17.98;77.92;102154.75;5077412;28;20086;-67
2021/07/17 01:35:09;;;;;;;59.38;19.77;;;;;;;17.96;78.06;102159.44;5095227;28;20040;-66
2021/07/17 01:37:37;;;;;;;60.00;18.63;;;;;;;17.96;78.29;102162.13;5093781;28;20040;-67
2021/07/17 01:40:05;;;;;;;64.60;19.52;;;;;;;17.92;78.03;102161.63;5079320;28;20040;-67
2021/07/17 01:42:35;;;;;;;57.85;19.20;;;;;;;18.00;78.31;102161.63;5073298;28;20037;-67
2021/07/17 01:45:05;;;;;;;61.47;19.42;;;;;;;18.00;78.06;102163.47;5056690;28;20123;-66
2021/07/17 01:47:36;;;;;;;66.45;19.13;;;;;;;17.94;78.43;102172.22;5074436;28;20066;-67
2021/07/17 01:50:07;;;;;;;56.50;18.88;;;;;;;17.93;78.58;102159.78;5074448;28;20501;-67
2021/07/17 01:52:34;;;;;;;64.97;17.55;;;;;;;17.99;78.35;102162.63;5074618;28;20040;-67
2021/07/17 01:55:01;;;;;;;59.15;18.38;;;;;;;17.94;78.65;102162.31;5073247;28;20049;-67
2021/07/17 01:57:28;;;;;;;58.78;18.20;;;;;;;17.86;78.33;102154.22;5072808;28;20064;-66
2021/07/17 01:59:55;;;;;;;55.83;18.55;;;;;;;17.90;78.06;102149.38;5074071;28;20486;-67
2021/07/17 02:02:22;;;;;;;64.88;18.58;;;;;;;17.82;78.47;102147.50;5074214;28;20412;-67
2021/07/17 02:04:48;;;;;;;66.28;18.02;;;;;;;17.81;78.68;102145.84;5074038;28;20525;-67
2021/07/17 02:07:15;;;;;;;53.08;17.83;;;;;;;17.86;78.79;102150.72;5074367;28;20052;-67
2021/07/17 02:09:42;;;;;;;59.08;18.08;;;;;;;17.82;78.90;102152.88;5084149;28;20379;-67
2021/07/17 02:12:09;;;;;;;55.47;18.48;;;;;;;17.86;78.21;102151.53;5093310;28;20040;-67
2021/07/17 02:14:37;;;;;;;55.20;17.80;;;;;;;17.77;78.60;102153.38;5094022;28;20044;-67
2021/07/17 02:17:05;;;;;;;66.57;18.13;;;;;;;17.87;78.20;102150.56;5094326;28;20063;-67
2021/07/17 02:19:32;;;;;;;57.03;18.58;;;;;;;17.74;78.72;102147.50;5092802;28;20051;-67
2021/07/17 02:21:59;;;;;;;55.47;18.00;;;;;;;17.76;78.50;102156.22;5084193;28;20036;-67
2021/07/17 02:24:26;;;;;;;56.25;18.13;;;;;;;17.77;78.31;102153.38;5072839;28;20036;-67
2021/07/17 02:26:53;;;;;;;51.15;17.50;;;;;;;17.77;78.29;102145.34;5055912;28;20048;-67
2021/07/17 02:29:19;;;;;;;64.03;17.45;;;;;;;17.81;78.25;102152.03;5073482;28;20139;-67
2021/07/17 02:31:46;;;;;;;61.47;18.27;;;;;;;17.71;78.19;102150.53;5070775;28;20124;-67
2021/07/17 02:34:14;;;;;;;60.35;19.25;;;;;;;17.65;78.11;102149.34;5072483;28;20043;-67
2021/07/17 02:36:41;;;;;;;69.75;20.50;;;;;;;17.64;78.60;102153.88;5072558;28;20047;-67
2021/07/17 02:39:09;;;;;;;73.10;20.05;;;;;;;17.58;78.95;102154.53;5078086;28;20040;-67
2021/07/17 02:41:36;;;;;;;59.97;18.58;;;;;;;17.64;78.79;102148.50;5093557;28;20068;-67
2021/07/17 02:44:04;;;;;;;63.95;19.02;;;;;;;17.63;78.55;102143.31;5075714;28;20040;-67
2021/07/17 02:46:31;;;;;;;59.97;19.85;;;;;;;17.60;78.42;102140.94;5092017;28;20052;-67
2021/07/17 02:48:58;;;;;;;61.10;18.90;;;;;;;17.66;78.48;102140.28;5093575;28;20044;-67
2021/07/17 02:51:25;;;;;;;64.22;19.02;;;;;;;17.67;78.37;102138.44;5093710;28;20119;-67
2021/07/17 02:53:51;;;;;;;62.83;19.33;;;;;;;17.78;78.35;102140.78;5081047;28;20054;-67
2021/07/17 02:56:18;;;;;;;56.13;18.77;;;;;;;17.68;78.40;102137.44;5092107;28;20044;-67
2021/07/17 02:58:45;;;;;;;61.38;19.85;;;;;;;17.69;78.70;102139.94;5091954;28;20051;-67
2021/07/17 03:01:12;;;;;;;55.10;20.35;;;;;;;17.65;78.73;102144.81;5091596;28;20108;-67
2021/07/17 03:03:38;;;;;;;49.17;19.10;;;;;;;17.62;78.50;102155.88;5093544;28;20055;-66
2021/07/17 03:06:05;;;;;;;67.70;19.50;;;;;;;17.60;78.45;102159.72;5092306;28;20500;-67
2021/07/17 03:08:32;;;;;;;72.82;19.63;;;;;;;17.59;78.58;102156.22;5091740;28;20074;-67
2021/07/17 03:10:59;;;;;;;63.22;18.35;;;;;;;17.63;78.47;102154.03;5075287;28;20040;-67
2021/07/17 03:13:25;;;;;;;62.13;17.83;;;;;;;17.60;78.65;102155.19;5092922;28;20039;-67
2021/07/17 03:15:52;;;;;;;50.40;16.98;;;;;;;17.66;78.36;102148.31;5091964;28;20048;-67
2021/07/17 03:18:19;;;;;;;47.72;18.27;;;;;;;17.65;78.80;102152.03;5093197;28;20047;-67
2021/07/17 03:20:46;;;;;;;55.55;18.90;;;;;;;17.62;78.61;102155.03;5093372;28;20411;-66
2021/07/17 03:23:13;;;;;;;63.35;19.23;;;;;;;17.64;78.34;102143.16;5093337;28;20046;-66
2021/07/17 03:25:40;;;;;;;63.25;19.50;;;;;;;17.60;78.51;102131.03;5092698;28;20040;-66
2021/07/17 03:28:07;;;;;;;57.70;19.55;;;;;;;17.58;78.39;102138.44;5092815;28;20123;-66
2021/07/17 03:30:35;;;;;;;74.47;19.75;;;;;;;17.59;78.98;102140.13;5073763;28;20055;-66
2021/07/17 03:33:03;;;;;;;60.20;18.52;;;;;;;17.62;78.84;102138.94;5090279;28;20101;-66
2021/07/17 03:35:30;;;;;;;58.45;18.27;;;;;;;17.69;78.44;102141.81;5092592;28;20036;-66
2021/07/17 03:37:57;;;;;;;56.85;19.33;;;;;;;17.62;78.61;102147.81;5091548;28;20036;-66
2021/07/17 03:40:23;;;;;;;53.83;17.98;;;;;;;17.60;78.51;102155.19;5075652;28;20060;-66
2021/07/17 03:42:50;;;;;;;58.92;19.20;;;;;;;17.49;79.16;102146.66;5072276;28;20132;-66
2021/07/17 03:45:17;;;;;;;61.67;19.58;;;;;;;17.46;79.10;102147.81;5072250;28;20076;-66
2021/07/17 03:47:44;;;;;;;54.33;18.55;;;;;;;17.47;79.09;102146.81;5071214;28;20049;-66
2021/07/17 03:50:11;;;;;;;58.38;18.80;;;;;;;17.46;78.97;102148.66;5072319;28;20037;-66
2021/07/17 03:52:38;;;;;;;59.03;18.38;;;;;;;17.45;79.03;102155.00;5072536;28;20520;-66
2021/07/17 03:55:05;;;;;;;62.45;18.88;;;;;;;17.43;78.96;102154.34;5072589;28;20044;-66
2021/07/17 03:57:32;;;;;;;65.68;19.65;;;;;;;17.44;79.15;102163.22;5072056;28;20048;-66
2021/07/17 04:00:00;;;;;;;65.60;19.20;;;;;;;17.46;79.83;102156.72;5072480;28;20086;-66
2021/07/17 04:02:29;;;;;;;60.38;18.50;;;;;;;17.43;79.56;102154.34;5072237;28;20555;-66
2021/07/17 04:04:57;;;;;;;64.43;18.98;;;;;;;17.52;79.39;102152.53;5070305;28;20070;-66
2021/07/17 04:07:24;;;;;;;60.88;20.15;;;;;;;17.41;79.86;102156.34;5054586;28;20037;-66
2021/07/17 04:09:50;;;;;;;58.05;18.55;;;;;;;17.46;79.38;102155.84;5072181;28;20041;-66
2021/07/17 04:12:18;;;;;;;65.28;19.17;;;;;;;17.55;79.04;102160.22;5082897;28;20071;-66
2021/07/17 04:14:45;;;;;;;61.10;18.98;;;;;;;17.57;78.88;102154.69;5092252;28;20044;-66
2021/07/17 04:17:12;;;;;;;57.72;19.52;;;;;;;17.58;79.05;102164.44;5091405;28;20119;-66
2021/07/17 04:19:38;;;;;;;59.05;19.20;;;;;;;17.44;79.30;102160.53;5074534;28;20044;-66
2021/07/17 04:22:05;;;;;;;58.80;18.95;;;;;;;17.48;78.80;102169.94;5091138;28;20079;-66
2021/07/17 04:24:32;;;;;;;62.83;19.10;;;;;;;17.41;79.79;102166.25;5090648;28;20131;-66
2021/07/17 04:26:59;;;;;;;50.65;19.08;;;;;;;17.37;79.45;102171.09;5092169;28;20056;-66
2021/07/17 04:29:25;;;;;;;52.53;18.95;;;;;;;17.33;79.99;102158.19;5091908;28;20036;-66
2021/07/17 04:31:52;;;;;;;59.60;19.05;;;;;;;17.33;79.79;102168.91;5074485;28;20045;-66
2021/07/17 04:34:20;;;;;;;58.42;19.60;;;;;;;17.42;80.10;102170.59;5092111;28;20047;-66
2021/07/17 04:36:47;;;;;;;54.60;18.52;;;;;;;17.40;79.73;102168.06;5090474;28;20245;-66
2021/07/17 04:39:13;;;;;;;50.08;19.48;;;;;;;17.32;79.93;102167.22;5090794;28;20062;-66
2021/07/17 04:41:40;;;;;;;62.60;18.52;;;;;;;17.40;79.87;102175.28;5092149;28;20044;-66
2021/07/17 04:44:07;;;;;;;53.25;19.63;;;;;;;17.38;79.89;102170.09;5090819;28;20408;-66
2021/07/17 04:46:34;;;;;;;51.63;17.75;;;;;;;17.48;79.39;102174.47;5092195;28;20043;-66
2021/07/17 04:49:00;;;;;;;51.22;18.83;;;;;;;17.37;79.75;102165.75;5076753;28;20548;-66
2021/07/17 04:51:27;;;;;;;59.40;19.15;;;;;;;17.45;79.82;102167.59;5095894;28;20128;-66
2021/07/17 04:53:54;;;;;;;54.63;18.85;;;;;;;17.44;80.02;102160.53;5095822;28;20052;-66
2021/07/17 04:56:21;;;;;;;52.22;18.13;;;;;;;17.60;79.26;102167.78;5096082;28;20048;-66
2021/07/17 04:58:47;;;;;;;51.80;18.08;;;;;;;17.45;79.96;102165.75;5095413;28;20050;-67
2021/07/17 05:01:14;;;;;;;58.22;19.05;;;;;;;17.61;78.85;102161.44;5095678;28;20465;-66
2021/07/17 05:03:41;;;;;;;55.10;18.15;;;;;;;17.50;79.97;102170.63;5095644;28;20041;-66
2021/07/17 05:06:08;;;;;;;56.30;17.98;;;;;;;17.54;79.81;102173.81;5095404;28;20050;-66
2021/07/17 05:08:34;;;;;;;56.00;17.90;;;;;;;17.49;79.98;102174.31;5095490;28;20044;-66
2021/07/17 05:11:01;;;;;;;60.45;17.42;;;;;;;17.43;79.81;102165.06;5094442;28;20075;-66
2021/07/17 05:13:29;;;;;;;59.08;17.63;;;;;;;17.48;80.46;102172.63;5092520;28;20504;-66
2021/07/17 05:15:56;;;;;;;56.33;17.30;;;;;;;17.70;79.01;102164.94;5093689;28;20151;-66
2021/07/17 05:18:23;;;;;;;50.25;16.90;;;;;;;17.61;79.09;102156.88;5093793;28;20452;-66
2021/07/17 05:20:50;;;;;;;53.75;17.38;;;;;;;17.61;79.41;102145.31;5093959;28;20040;-66
2021/07/17 05:23:16;;;;;;;51.38;17.20;;;;;;;17.56;79.23;102145.81;5095320;28;20119;-66
2021/07/17 05:25:44;;;;;;;49.90;18.38;;;;;;;17.53;79.55;102151.50;5093988;28;20259;-66
2021/07/17 05:28:12;;;;;;;52.92;17.17;;;;;;;17.49;79.43;102143.97;5095248;28;20040;-66
2021/07/17 05:30:39;;;;;;;47.33;17.52;;;;;;;17.43;79.76;102158.88;5094927;28;20051;-66
2021/07/17 05:33:06;;;;;;;55.55;16.65;;;;;;;17.44;79.14;102153.34;5094896;28;20036;-66
2021/07/17 05:35:33;;;;;;;47.55;16.77;;;;;;;17.44;79.90;102156.03;5095303;28;20055;-66
2021/07/17 05:38:00;;;;;;;54.85;17.58;;;;;;;17.51;79.24;102141.94;5095145;28;20040;-66
2021/07/17 05:40:27;;;;;;;54.70;16.73;;;;;;;17.50;79.34;102153.66;5075589;28;20489;-66
2021/07/17 05:42:54;;;;;;;56.00;17.45;;;;;;;17.64;78.99;102148.50;5074673;28;20136;-66
2021/07/17 05:45:20;;;;;;;56.60;16.83;;;;;;;17.64;79.62;102156.56;5073244;28;20045;-66
2021/07/17 05:47:48;;;;;;;58.33;17.55;;;;;;;17.49;79.54;102163.56;5074144;28;20040;-66
2021/07/17 05:50:16;;;;;;;53.65;17.45;;;;;;;17.51;79.68;102168.78;5073254;28;20051;-66
2021/07/17 05:52:43;;;;;;;53.80;17.77;;;;;;;17.45;79.97;102167.59;5074783;28;20044;-66
2021/07/17 05:55:11;;;;;;;51.65;16.75;;;;;;;17.44;80.43;102165.91;5073524;28;20036;-66
2021/07/17 05:57:38;;;;;;;50.05;16.98;;;;;;;17.57;79.60;102171.66;5040212;28;20048;-66
2021/07/17 06:00:08;;;;;;;57.05;16.70;;;;;;;17.43;79.99;102185.69;5074210;28;20040;-66
2021/07/17 06:02:41;;;;;;;45.85;16.80;;;;;;;17.45;79.63;102167.59;5073026;28;20535;-66
2021/07/17 06:05:09;;;;;;;46.15;16.92;;;;;;;17.42;79.67;102173.28;5056674;28;20041;-66
2021/07/17 06:07:35;;;;;;;56.38;17.20;;;;;;;17.51;79.49;102172.28;5074023;28;20131;-66
2021/07/17 06:10:03;;;;;;;49.00;20.13;;;;;;;17.61;78.15;102185.56;5087264;28;20075;-66
2021/07/17 06:12:31;;;;;;;57.47;19.90;;;;;;;17.52;78.04;102183.84;5093191;28;20058;-66
2021/07/17 06:15:00;;;;;;;62.58;19.55;;;;;;;17.50;77.42;102186.72;5075951;28;20042;-67
2021/07/17 06:17:26;;;;;;;51.65;18.02;;;;;;;17.49;77.21;102186.88;5092766;28;20036;-66
2021/07/17 06:19:53;;;;;;;58.65;19.00;;;;;;;17.51;77.14;102188.38;5093087;28;20068;-66
2021/07/17 06:22:20;;;;;;;53.22;19.27;;;;;;;17.63;76.51;102179.03;5094228;28;20044;-66
2021/07/17 06:24:47;;;;;;;48.95;18.27;;;;;;;17.61;76.92;102189.09;5093055;28;20040;-66
2021/07/17 06:27:13;;;;;;;51.72;17.98;;;;;;;17.68;76.54;102185.72;5092949;28;20048;-66
2021/07/17 06:29:40;;;;;;;48.83;19.45;;;;;;;17.80;76.15;102187.91;5093417;28;20048;-66
2021/07/17 06:32:07;;;;;;;49.42;17.77;;;;;;;17.70;75.66;102195.31;5092672;28;20047;-66
2021/07/17 06:34:34;;;;;;;53.35;18.02;;;;;;;17.65;75.75;102195.78;5094083;28;20047;-66
2021/07/17 06:37:01;;;;;;;50.17;19.15;;;;;;;17.63;75.74;102200.50;5090973;28;20067;-66
2021/07/17 06:39:29;;;;;;;62.88;18.63;;;;;;;17.53;76.47;102199.78;5075830;28;20044;-66
2021/07/17 06:41:55;;;;;;;55.95;18.63;;;;;;;17.73;75.67;102196.81;5092539;28;20059;-66
2021/07/17 06:44:22;;;;;;;52.92;18.20;;;;;;;17.76;75.36;102205.38;5092149;28;20527;-66
2021/07/17 06:46:49;;;;;;;53.28;17.92;;;;;;;17.76;75.47;102205.38;5075624;28;20450;-66
2021/07/17 06:49:16;;;;;;;49.88;17.00;;;;;;;17.65;75.15;102205.69;5059140;28;20101;-66
2021/07/17 06:51:43;;;;;;;45.63;17.85;;;;;;;17.66;75.60;102202.00;5075901;28;20044;-66
2021/07/17 06:54:09;;;;;;;52.58;18.67;;;;;;;17.66;75.14;102204.69;5093633;28;20464;-66
2021/07/17 06:56:36;;;;;;;50.63;18.65;;;;;;;17.74;75.74;102203.88;5093515;28;20401;-67
2021/07/17 06:59:03;;;;;;;52.92;20.17;;;;;;;17.78;74.96;102207.88;5092819;28;20135;-66
2021/07/17 07:01:30;;;;;;;53.83;19.88;;;;;;;17.83;75.27;102208.25;5091748;28;20503;-67
2021/07/17 07:03:57;;;;;;;56.47;20.63;;;;;;;17.90;75.13;102211.09;5090594;28;20122;-67
2021/07/17 07:06:24;;;;;;;52.72;21.02;;;;;;;17.87;74.95;102209.59;5074570;28;20036;-67
2021/07/17 07:08:51;;;;;;;54.95;21.70;;;;;;;17.95;74.59;102214.97;5087762;28;20164;-67
2021/07/17 07:11:17;;;;;;;53.38;21.27;;;;;;;18.01;74.86;102214.31;5072415;28;20045;-67
2021/07/17 07:13:44;;;;;;;56.25;21.55;;;;;;;18.13;74.44;102219.34;5072742;28;20098;-67
2021/07/17 07:16:13;;;;;;;53.00;22.23;;;;;;;18.14;74.22;102213.81;5071599;28;20048;-67
2021/07/17 07:18:39;;;;;;;57.60;20.88;;;;;;;18.26;73.58;102229.56;5071791;28;20493;-67
2021/07/17 07:21:07;;;;;;;53.05;20.65;;;;;;;18.16;73.48;102229.75;5072948;28;20041;-67
2021/07/17 07:23:34;;;;;;;54.13;20.38;;;;;;;18.00;74.51;102236.78;5071855;28;20040;-67
2021/07/17 07:26:00;;;;;;;53.75;21.77;;;;;;;18.01;74.76;102235.78;5071552;28;20049;-67
2021/07/17 07:28:28;;;;;;;53.70;22.35;;;;;;;18.06;74.33;102237.97;5072643;28;20052;-67
2021/07/17 07:30:55;;;;;;;54.83;24.30;;;;;;;18.06;74.90;102237.13;5072616;28;20044;-67
2021/07/17 07:33:21;;;;;;;54.38;25.67;;;;;;;18.09;74.30;102234.94;5070125;28;20424;-67
2021/07/17 07:35:48;;;;;;;60.25;26.83;;;;;;;18.03;74.95;102232.94;5071484;28;20055;-67
2021/07/17 07:38:15;;;;;;;77.90;29.73;;;;;;;17.99;75.28;102245.00;5071004;28;20071;-67
2021/07/17 07:40:42;;;;;;;89.72;35.60;;;;;;;17.93;74.68;102243.00;5072595;28;20037;-67
2021/07/17 07:43:10;;;;;;;77.45;35.70;;;;;;;17.84;74.89;102237.59;5071466;28;20044;-67
2021/07/17 07:45:37;;;;;;;79.53;36.75;;;;;;;17.93;74.77;102251.88;5054608;28;20090;-67
2021/07/17 07:48:04;;;;;;;73.35;33.42;;;;;;;18.00;74.60;102239.47;5054714;28;20079;-68
2021/07/17 07:50:31;;;;;;;74.20;34.03;;;;;;;17.94;74.89;102242.84;5071041;28;20068;-67
2021/07/17 07:52:59;;;;;;;77.47;34.08;;;;;;;18.01;75.23;102248.38;5069778;28;20044;-67
2021/07/17 07:55:26;;;;;;;62.53;26.10;;;;;;;17.92;74.69;102246.69;5069176;28;20448;-66
2021/07/17 07:57:52;;;;;;;54.03;26.77;;;;;;;17.91;75.57;102248.53;5070471;28;20045;-66
2021/07/17 08:00:19;;;;;;;67.57;27.17;;;;;;;17.93;75.00;102249.19;5072220;28;20123;-66
2021/07/17 08:02:50;;;;;;;81.88;27.42;;;;;;;18.06;75.80;102246.03;5055255;28;20117;-66
2021/07/17 08:05:17;;;;;;;73.82;29.00;;;;;;;18.18;74.97;102247.38;5070924;28;20545;-66
2021/07/17 08:07:43;;;;;;;72.13;28.23;;;;;;;18.25;74.53;102252.09;5088585;28;20155;-66
2021/07/17 08:10:10;;;;;;;64.78;28.15;;;;;;;18.37;73.85;102245.34;5092436;28;20067;-66
2021/07/17 08:12:37;;;;;;;77.07;29.65;;;;;;;18.33;74.52;102246.69;5091346;28;20044;-66
2021/07/17 08:15:07;;;;;;;78.47;28.83;;;;;;;18.32;74.59;102247.69;5092360;28;20424;-66
2021/07/17 08:17:34;;;;;;;66.50;29.55;;;;;;;18.36;74.38;102244.50;5090943;28;20048;-66
2021/07/17 08:20:00;;;;;;;66.63;30.77;;;;;;;18.51;73.84;102247.34;5090974;28;20378;-66
2021/07/17 08:22:28;;;;;;;76.43;30.23;;;;;;;18.67;73.63;102238.44;5091287;28;20040;-66
2021/07/17 08:24:55;;;;;;;62.75;27.88;;;;;;;18.76;73.39;102241.94;5094998;28;20114;-66
2021/07/17 08:27:21;;;;;;;69.53;30.98;;;;;;;18.76;73.55;102240.09;5078357;28;20040;-66
2021/07/17 08:29:48;;;;;;;69.60;31.45;;;;;;;18.95;73.73;102243.41;5096487;28;20047;-66
2021/07/17 08:32:15;;;;;;;68.47;30.73;;;;;;;18.88;73.15;102245.13;5096440;28;20057;-66
2021/07/17 08:34:42;;;;;;;65.15;26.23;;;;;;;18.93;72.50;102246.28;5094208;28;20051;-66
2021/07/17 08:37:09;;;;;;;64.80;25.27;;;;;;;18.98;71.99;102248.47;5095336;28;20568;-65
2021/07/17 08:39:35;;;;;;;62.90;24.90;;;;;;;18.80;73.00;102245.94;5096069;28;20051;-66
2021/07/17 08:42:05;;;;;;;59.30;25.08;;;;;;;18.77;73.31;102254.34;5096278;28;20075;-66
2021/07/17 08:44:32;;;;;;;58.35;24.88;;;;;;;18.80;73.76;102252.16;5095982;28;20036;-66
2021/07/17 08:47:01;;;;;;;57.78;24.67;;;;;;;18.84;73.59;102243.78;5095976;28;20580;-66
2021/07/17 08:49:28;;;;;;;49.92;20.17;;;;;;;18.88;73.84;102255.88;5094948;28;20047;-66
2021/07/17 08:51:55;;;;;;;42.30;18.40;;;;;;;19.01;72.29;102249.94;5095053;28;20068;-66
2021/07/17 08:54:23;;;;;;;46.45;17.85;;;;;;;19.15;71.49;102250.06;5096143;28;20119;-66
2021/07/17 08:56:50;;;;;;;40.40;15.57;;;;;;;19.37;71.07;102250.31;5095997;28;20067;-66
2021/07/17 08:59:16;;;;;;;46.60;15.57;;;;;;;19.65;70.71;102256.06;5095949;28;20044;-66
2021/07/17 09:01:43;;;;;;;34.30;13.98;;;;;;;19.65;70.65;102257.91;5095110;28;20040;-66
2021/07/17 09:04:10;;;;;;;42.55;14.32;;;;;;;19.78;69.84;102250.09;5095490;28;20492;-66
2021/07/17 09:06:37;;;;;;;40.15;13.57;;;;;;;19.86;70.07;102247.34;5093851;28;20524;-66
2021/07/17 09:09:06;;;;;;;40.25;12.88;;;;;;;19.82;68.73;102246.03;5088136;28;20045;-66
2021/07/17 09:11:35;;;;;;;36.35;13.80;;;;;;;19.99;67.82;102245.91;5074253;28;20401;-66
2021/07/17 09:14:03;;;;;;;37.05;13.45;;;;;;;20.07;68.45;102249.38;5075015;28;20037;-66
2021/07/17 09:16:31;;;;;;;37.65;15.27;;;;;;;19.93;68.38;102244.78;5073734;28;20075;-66
2021/07/17 09:18:59;;;;;;;40.13;16.65;;;;;;;19.90;68.16;102245.13;5075155;28;20044;-66
2021/07/17 09:21:31;;;;;;;41.88;19.05;;;;;;;19.80;68.21;102242.69;5075070;28;20051;-66
2021/07/17 09:24:09;;;;;;;43.45;19.13;;;;;;;20.03;69.47;102242.69;5057464;28;20036;-66
2021/07/17 09:26:38;;;;;;;50.60;14.88;;;;;;;20.13;68.01;102235.19;5057175;28;20041;-65
2021/07/17 09:29:09;;;;;;;39.50;14.50;;;;;;;20.30;67.37;102225.13;5074907;28;20048;-65
2021/07/17 09:31:52;;;;;;;43.80;15.35;;;;;;;20.48;66.32;102227.47;5073793;28;20040;-67
2021/07/17 09:34:23;;;;;;;38.92;14.32;;;;;;;20.55;67.04;102234.81;5057116;28;20064;-65
2021/07/17 09:36:54;;;;;;;41.03;15.05;;;;;;;20.47;66.32;102231.19;5073229;28;20064;-66
2021/07/17 09:39:26;;;;;;;34.15;15.80;;;;;;;20.60;67.30;102227.84;5073420;28;20071;-66
2021/07/17 09:41:57;;;;;;;38.92;16.30;;;;;;;20.74;67.61;102220.84;5073776;28;20041;-66
2021/07/17 09:44:26;;;;;;;41.73;13.70;;;;;;;21.02;65.12;102220.16;5056928;28;20055;-66
2021/07/17 09:46:53;;;;;;;33.28;13.68;;;;;;;20.99;65.16;102223.22;5074434;28;20658;-66
2021/07/17 09:49:22;;;;;;;31.77;13.38;;;;;;;21.01;65.57;102223.88;5073519;28;20110;-66
2021/07/17 09:52:05;;;;;;;33.50;11.88;;;;;;;20.98;64.81;102214.31;5073103;28;20131;-66
2021/07/17 09:54:34;;;;;;;32.63;12.23;;;;;;;21.13;64.53;102222.38;5074638;28;20033;-66
2021/07/17 09:57:02;;;;;;;33.05;11.43;;;;;;;21.26;64.38;102221.72;5074340;28;20045;-66
2021/07/17 09:59:29;;;;;;;31.08;11.52;;;;;;;21.51;64.07;102216.00;5056746;28;20068;-66
2021/07/17 10:01:55;;;;;;;29.30;10.90;;;;;;;21.66;63.19;102219.47;5073872;28;20390;-66
2021/07/17 10:04:22;;;;;;;37.05;10.88;;;;;;;21.85;62.68;102218.84;5088822;28;20123;-66
2021/07/17 10:07:06;;;;;;;33.63;11.45;;;;;;;22.05;62.54;102223.59;5091615;28;20044;-66
2021/07/17 10:09:34;;;;;;;38.35;12.18;;;;;;;22.33;62.04;102215.53;5093399;28;20082;-66
2021/07/17 10:12:06;;;;;;;38.72;13.63;;;;;;;22.41;59.79;102211.84;5094497;28;20050;-66
2021/07/17 10:14:36;;;;;;;29.48;11.38;;;;;;;22.56;62.06;102204.47;5093438;28;20384;-66
2021/07/17 10:17:06;;;;;;;41.50;12.07;;;;;;;22.72;60.88;102202.47;5093216;28;20135;-66
2021/07/17 10:19:34;;;;;;;39.00;11.90;;;;;;;22.75;59.81;102194.78;5076758;28;20040;-66
2021/07/17 10:22:02;;;;;;;31.45;10.93;;;;;;;22.81;59.16;102195.84;5093059;28;20489;-66
2021/07/17 10:24:30;;;;;;;32.00;10.10;;;;;;;22.81;58.91;102204.81;5093080;28;20059;-66
2021/07/17 10:26:58;;;;;;;31.35;10.07;;;;;;;22.76;58.82;102195.66;5092832;28;20044;-66
2021/07/17 10:29:26;;;;;;;40.63;13.00;;;;;;;22.77;58.14;102198.13;5076158;28;20078;-66
2021/07/17 10:31:56;;;;;;;35.13;12.73;;;;;;;22.62;59.55;102195.56;5093889;28;20036;-66
2021/07/17 10:34:23;;;;;;;37.22;14.02;;;;;;;22.89;58.66;102197.56;5094384;28;20040;-66
2021/07/17 10:37:13;;;;;;;36.75;15.80;;;;;;;23.06;59.69;102192.69;5092074;28;20044;-66
2021/07/17 10:39:44;;;;;;;42.88;15.15;;;;;;;23.18;59.46;102199.19;5093422;28;20044;-66
2021/07/17 10:42:17;;;;;;;39.28;12.95;;;;;;;23.38;59.22;102191.13;5075946;28;20391;-66
2021/07/17 10:44:48;;;;;;;33.38;12.45;;;;;;;23.48;58.30;102193.44;5092243;28;20436;-66
2021/07/17 10:47:17;;;;;;;45.10;13.60;;;;;;;23.58;58.32;102197.41;5093351;28;20075;-66
2021/07/17 10:49:46;;;;;;;39.70;14.00;;;;;;;23.54;58.30;102192.63;5092749;28;20044;-66
2021/07/17 10:52:13;;;;;;;40.75;13.25;;;;;;;23.43;56.64;102193.22;5092083;28;20056;-67
2021/07/17 10:54:40;;;;;;;35.53;12.38;;;;;;;23.66;56.96;102190.97;5093803;28;20059;-67
2021/07/17 10:57:08;;;;;;;45.83;14.13;;;;;;;23.42;56.76;102194.25;5093860;28;20109;-67
2021/07/17 11:02:12;;;;;;;38.70;12.48;;;;;;;23.60;58.73;102180.97;5110880;27;20460;-65
2021/07/17 11:04:52;;;;;;;36.35;12.23;;;;;;;23.70;57.55;102192.25;5054794;28;20497;-65
2021/07/17 11:09:59;;;;;;;37.80;11.82;;;;;;;23.66;56.61;102182.84;5070037;28;20748;-65
2021/07/17 11:12:29;;;;;;;35.15;11.10;;;;;;;23.56;58.10;102180.53;5070056;28;20517;-65
2021/07/17 11:15:19;;;;;;;33.83;9.48;;;;;;;23.73;57.10;102180.97;5067311;28;20060;-66
2021/07/17 11:17:48;;;;;;;33.10;10.02;;;;;;;23.66;57.59;102174.72;5069383;28;20140;-66